Time;durP1;ratioP1;P1;durP2;ratioP2;P2;SDS_P1;SDS_P2;PMS_P1;PMS_P2;Temp;Humidity;BMP_temperature;BMP_pressure;BME280_temperature;BME280_humidity;BME280_pressure;Samples;Min_cycle;Max_cycle;Signal;HPM_P1;HPM_P2
2023/03/29 00:02:28;;;;;;;;;;;5.90;99.90;;;;;;5029920;28;19963;-58
2023/03/29 00:04:55;;;;;;;;;;;5.80;99.90;;;;;;5032325;28;19936;-56
2023/03/29 00:07:22;;;;;;;;;;;5.80;99.90;;;;;;5040823;28;20500;-58
2023/03/29 00:09:48;;;;;;;;;;;5.80;99.90;;;;;;5049988;28;19947;-58
2023/03/29 00:12:13;;;;;;;;;;;5.80;99.90;;;;;;5040211;28;19917;-58
2023/03/29 00:14:39;;;;;;;;;;;5.80;99.90;;;;;;5048652;28;20440;-59
2023/03/29 00:17:05;;;;;;;;;;;5.80;99.90;;;;;;5033482;28;19917;-57
2023/03/29 00:19:34;;;;;;;;;;;5.80;99.90;;;;;;5032073;28;19917;-58
2023/03/29 00:22:00;;;;;;;;;;;5.80;99.90;;;;;;5034085;28;19920;-58
2023/03/29 00:24:26;;;;;;;;;;;5.70;99.90;;;;;;5040576;28;19951;-57
2023/03/29 00:26:51;;;;;;;;;;;5.70;99.90;;;;;;5052077;28;19916;-58
2023/03/29 00:29:17;;;;;;;;;;;5.80;99.90;;;;;;5050064;28;19924;-58
2023/03/29 00:31:51;;;;;;;;;;;5.70;99.90;;;;;;5043871;28;19971;-57
2023/03/29 00:34:17;;;;;;;;;;;5.70;99.90;;;;;;5033389;28;20170;-58
2023/03/29 00:36:42;;;;;;;;;;;5.70;99.90;;;;;;5037711;28;20067;-58
2023/03/29 00:39:08;;;;;;;;;;;5.70;99.90;;;;;;5042031;28;19921;-56
2023/03/29 00:41:34;;;;;;;;;;;5.70;99.90;;;;;;5050277;28;19921;-57
2023/03/29 00:44:01;;;;;;;;;;;5.70;99.90;;;;;;5034607;28;19931;-57
2023/03/29 00:46:29;;;;;;;;;;;5.70;99.90;;;;;;5033137;28;19921;-57
2023/03/29 00:48:57;;;;;;;;;;;5.70;99.90;;;;;;5032640;28;19921;-58
2023/03/29 00:51:25;;;;;;;;;;;5.60;99.90;;;;;;5032100;28;20352;-58
2023/03/29 00:53:54;;;;;;;;;;;5.70;99.90;;;;;;5034385;28;19921;-57
2023/03/29 00:56:23;;;;;;;;;;;5.70;99.90;;;;;;5032534;28;20366;-57
2023/03/29 00:59:08;;;;;;;;;;;5.70;99.90;;;;;;5032113;28;20366;-57
2023/03/29 01:01:34;;;;;;;;;;;5.70;99.90;;;;;;5048507;28;19917;-57
2023/03/29 01:04:08;;;;;;;;;;;5.70;99.90;;;;;;5050714;28;19944;-57
2023/03/29 01:06:34;;;;;;;;;;;5.70;99.90;;;;;;5044766;28;19920;-56
2023/03/29 01:09:01;;;;;;;;;;;5.70;99.90;;;;;;5031940;28;19955;-58
2023/03/29 01:11:33;;;;;;;;;;;5.70;99.90;;;;;;5032600;28;20358;-57
2023/03/29 01:14:04;;;;;;;;;;;5.70;99.90;;;;;;5030753;28;19917;-58
2023/03/29 01:16:31;;;;;;;;;;;5.70;99.90;;;;;;5034863;28;19917;-57
2023/03/29 01:18:57;;;;;;;;;;;5.70;99.90;;;;;;5031349;28;19943;-58
2023/03/29 01:21:28;;;;;;;;;;;5.70;99.90;;;;;;5033561;28;20377;-57
2023/03/29 01:24:05;;;;;;;;;;;5.70;99.90;;;;;;5033386;28;19928;-57
2023/03/29 01:26:46;;;;;;;;;;;5.70;99.90;;;;;;5033804;28;19917;-58
2023/03/29 01:29:14;;;;;;;;;;;5.60;99.90;;;;;;5048548;28;19921;-57
2023/03/29 01:31:43;;;;;;;;;;;5.60;99.90;;;;;;5047841;28;20003;-58
2023/03/29 01:34:10;;;;;;;;;;;5.70;99.90;;;;;;5045509;28;19944;-54
2023/03/29 01:36:48;;;;;;;;;;;5.60;99.90;;;;;;5050032;28;20365;-58
2023/03/29 01:39:13;;;;;;;;;;;5.60;99.90;;;;;;5033351;28;19931;-55
2023/03/29 01:41:42;;;;;;;;;;;5.60;99.90;;;;;;5035373;28;20361;-57
2023/03/29 01:44:14;;;;;;;;;;;5.70;99.90;;;;;;5047697;28;19975;-55
2023/03/29 01:46:47;;;;;;;;;;;5.70;99.90;;;;;;5050120;28;19916;-58
2023/03/29 01:49:31;;;;;;;;;;;5.70;99.90;;;;;;5045657;28;20267;-58
2023/03/29 01:52:05;;;;;;;;;;;5.70;99.90;;;;;;5047444;28;20411;-58
2023/03/29 01:54:34;;;;;;;;;;;5.70;99.90;;;;;;5036836;28;19917;-58
2023/03/29 01:57:02;;;;;;;;;;;5.70;99.90;;;;;;5031839;28;19916;-58
2023/03/29 01:59:29;;;;;;;;;;;5.60;99.90;;;;;;5040605;28;19924;-55
2023/03/29 02:01:57;;;;;;;;;;;5.70;99.90;;;;;;5049259;28;19916;-57
2023/03/29 02:04:31;;;;;;;;;;;5.70;99.90;;;;;;5038056;28;19944;-57
2023/03/29 02:06:58;;;;;;;;;;;5.70;99.90;;;;;;5049701;28;20015;-58
2023/03/29 02:09:23;;;;;;;;;;;5.60;99.90;;;;;;5024413;28;19961;-58
2023/03/29 02:11:50;;;;;;;;;;;5.70;99.90;;;;;;5031365;28;19925;-56
2023/03/29 02:14:15;;;;;;;;;;;5.60;99.90;;;;;;5030791;28;19943;-54
2023/03/29 02:16:41;;;;;;;;;;;5.70;99.90;;;;;;5035351;28;19921;-58
2023/03/29 02:19:08;;;;;;;;;;;5.70;99.90;;;;;;5012632;28;20402;-58
2023/03/29 02:21:41;;;;;;;;;;;5.70;99.90;;;;;;5031407;28;20322;-58
2023/03/29 02:24:10;;;;;;;;;;;5.70;99.90;;;;;;5030943;28;19933;-57
2023/03/29 02:26:35;;;;;;;;;;;5.70;99.90;;;;;;5031341;28;20401;-58
2023/03/29 02:29:01;;;;;;;;;;;5.70;99.90;;;;;;5030273;28;19963;-55
2023/03/29 02:31:39;;;;;;;;;;;5.70;99.90;;;;;;5031442;28;19964;-56
2023/03/29 02:34:25;;;;;;;;;;;5.70;99.90;;;;;;5047564;28;19916;-58
2023/03/29 02:36:53;;;;;;;;;;;5.70;99.90;;;;;;5048902;28;19923;-58
2023/03/29 02:39:20;;;;;;;;;;;5.70;99.90;;;;;;5032193;28;19917;-58
2023/03/29 02:41:47;;;;;;;;;;;5.70;99.90;;;;;;5013141;28;19970;-58
2023/03/29 02:44:15;;;;;;;;;;;5.70;99.90;;;;;;5031750;28;20317;-59
2023/03/29 02:46:42;;;;;;;;;;;5.70;99.90;;;;;;5049021;28;19925;-58
2023/03/29 02:49:09;;;;;;;;;;;5.70;99.90;;;;;;5032758;28;20386;-58
2023/03/29 02:51:35;;;;;;;;;;;5.70;99.90;;;;;;5030775;28;20411;-59
2023/03/29 02:54:01;;;;;;;;;;;5.70;99.90;;;;;;5037487;28;20009;-57
2023/03/29 02:56:27;;;;;;;;;;;5.70;99.90;;;;;;5047247;28;20007;-58
2023/03/29 02:58:53;;;;;;;;;;;5.70;99.90;;;;;;5043955;28;20580;-58
2023/03/29 03:01:19;;;;;;;;;;;5.70;99.90;;;;;;5047245;28;19917;-58
2023/03/29 03:03:45;;;;;;;;;;;5.70;99.90;;;;;;5040822;28;20291;-58
2023/03/29 03:06:12;;;;;;;;;;;5.70;99.90;;;;;;5030726;28;20371;-57
2023/03/29 03:08:38;;;;;;;;;;;5.70;99.90;;;;;;5029652;28;20467;-58
2023/03/29 03:11:03;;;;;;;;;;;5.80;99.90;;;;;;5032034;28;19944;-58
2023/03/29 03:13:29;;;;;;;;;;;5.80;99.90;;;;;;5041172;28;20021;-59
2023/03/29 03:15:55;;;;;;;;;;;5.80;99.90;;;;;;5048523;28;19924;-58
2023/03/29 03:18:21;;;;;;;;;;;5.80;99.90;;;;;;5047340;28;19921;-58
2023/03/29 03:20:53;;;;;;;;;;;5.80;99.90;;;;;;5047735;28;19924;-58
2023/03/29 03:23:18;;;;;;;;;;;5.80;99.90;;;;;;5046278;28;19927;-56
2023/03/29 03:25:44;;;;;;;;;;;5.80;99.90;;;;;;5048311;28;19920;-58
2023/03/29 03:28:10;;;;;;;;;;;5.80;99.90;;;;;;5047387;28;20023;-59
2023/03/29 03:30:35;;;;;;;;;;;5.80;99.90;;;;;;5047565;28;19916;-58
2023/03/29 03:33:00;;;;;;;;;;;5.80;99.90;;;;;;5048002;28;19916;-56
2023/03/29 03:35:27;;;;;;;;;;;5.80;99.90;;;;;;5030265;28;19921;-57
2023/03/29 03:37:52;;;;;;;;;;;5.80;99.90;;;;;;5029227;28;19917;-58
2023/03/29 03:40:18;;;;;;;;;;;5.80;99.90;;;;;;5045860;28;19924;-57
2023/03/29 03:42:43;;;;;;;;;;;5.80;99.90;;;;;;5047710;28;20012;-57
2023/03/29 03:45:11;;;;;;;;;;;5.90;99.90;;;;;;5047821;28;19974;-58
2023/03/29 03:47:36;;;;;;;;;;;5.90;99.90;;;;;;5047045;28;20322;-58
2023/03/29 03:50:02;;;;;;;;;;;5.90;99.90;;;;;;5047417;28;19974;-57
2023/03/29 03:52:28;;;;;;;;;;;5.90;99.90;;;;;;5047823;28;19917;-58
2023/03/29 03:54:54;;;;;;;;;;;5.90;99.90;;;;;;5024623;28;19971;-57
2023/03/29 03:57:19;;;;;;;;;;;5.90;99.90;;;;;;5034904;28;19947;-58
2023/03/29 03:59:45;;;;;;;;;;;5.90;99.90;;;;;;5046715;28;19923;-57
2023/03/29 04:02:10;;;;;;;;;;;5.90;99.90;;;;;;5045705;28;20081;-55
2023/03/29 04:04:36;;;;;;;;;;;5.90;99.90;;;;;;5044054;28;20287;-58
2023/03/29 04:07:01;;;;;;;;;;;5.90;99.90;;;;;;5043451;28;20415;-58
2023/03/29 04:09:31;;;;;;;;;;;5.90;99.90;;;;;;5038719;28;19917;-58
2023/03/29 04:11:57;;;;;;;;;;;5.90;99.90;;;;;;5048012;28;19928;-58
2023/03/29 04:14:24;;;;;;;;;;;5.90;99.90;;;;;;5030097;28;19920;-59
2023/03/29 04:16:51;;;;;;;;;;;5.90;99.90;;;;;;5047569;28;19940;-55
2023/03/29 04:19:16;;;;;;;;;;;6.00;99.90;;;;;;5023730;28;19944;-57
2023/03/29 04:21:44;;;;;;;;;;;6.00;99.90;;;;;;5047322;28;20402;-58
2023/03/29 04:24:10;;;;;;;;;;;6.00;99.90;;;;;;5047464;28;20017;-58
2023/03/29 04:26:36;;;;;;;;;;;6.00;99.90;;;;;;5029567;28;19934;-58
2023/03/29 04:29:01;;;;;;;;;;;6.00;99.90;;;;;;5046693;28;20126;-58
2023/03/29 04:31:27;;;;;;;;;;;6.00;99.90;;;;;;5047395;28;20316;-58
2023/03/29 04:33:52;;;;;;;;;;;6.00;99.90;;;;;;5028055;28;20428;-58
2023/03/29 04:36:18;;;;;;;;;;;6.00;99.90;;;;;;5047447;28;19916;-57
2023/03/29 04:38:43;;;;;;;;;;;6.00;99.90;;;;;;5045834;28;19924;-57
2023/03/29 04:41:09;;;;;;;;;;;6.00;99.90;;;;;;5047098;28;19962;-58
2023/03/29 04:43:35;;;;;;;;;;;6.00;99.90;;;;;;5047371;28;19921;-58
2023/03/29 04:46:02;;;;;;;;;;;6.00;99.90;;;;;;5045977;28;19920;-57
2023/03/29 04:48:30;;;;;;;;;;;6.00;99.90;;;;;;5038134;28;19921;-56
2023/03/29 04:50:55;;;;;;;;;;;5.90;99.90;;;;;;5044431;28;20317;-58
2023/03/29 04:53:21;;;;;;;;;;;5.90;99.90;;;;;;5032785;28;19936;-58
2023/03/29 04:55:47;;;;;;;;;;;5.90;99.90;;;;;;5032931;28;20436;-58
2023/03/29 04:58:13;;;;;;;;;;;5.90;99.90;;;;;;5014502;28;20333;-57
2023/03/29 05:00:38;;;;;;;;;;;5.90;99.90;;;;;;5032472;28;19967;-58
2023/03/29 05:03:04;;;;;;;;;;;5.80;99.90;;;;;;5048189;28;19975;-58
2023/03/29 05:05:30;;;;;;;;;;;5.80;99.90;;;;;;5050065;28;19920;-56
2023/03/29 05:07:55;;;;;;;;;;;5.90;99.90;;;;;;5049915;28;19930;-57
2023/03/29 05:10:22;;;;;;;;;;;5.80;99.90;;;;;;5049961;28;20298;-57
2023/03/29 05:12:52;;;;;;;;;;;5.80;99.90;;;;;;5039170;28;19925;-59
2023/03/29 05:15:19;;;;;;;;;;;5.80;99.90;;;;;;5046219;28;20011;-58
2023/03/29 05:17:44;;;;;;;;;;;5.80;99.90;;;;;;5047511;28;19916;-58
2023/03/29 05:20:10;;;;;;;;;;;5.80;99.90;;;;;;5049215;28;19916;-57
2023/03/29 05:22:37;;;;;;;;;;;5.80;99.90;;;;;;5050036;28;19927;-56
2023/03/29 05:25:03;;;;;;;;;;;5.80;99.90;;;;;;5050534;28;19920;-58
2023/03/29 05:27:29;;;;;;;;;;;5.80;99.90;;;;;;5025574;28;19931;-57
2023/03/29 05:29:55;;;;;;;;;;;5.80;99.90;;;;;;5036317;28;19917;-58
2023/03/29 05:32:21;;;;;;;;;;;5.80;99.90;;;;;;5050161;28;19935;-57
2023/03/29 05:34:46;;;;;;;;;;;5.80;99.90;;;;;;5016936;28;20375;-54
2023/03/29 05:37:12;;;;;;;;;;;5.80;99.90;;;;;;5032035;28;19932;-58
2023/03/29 05:39:37;;;;;;;;;;;5.80;99.90;;;;;;5030654;28;19924;-58
2023/03/29 05:42:03;;;;;;;;;;;5.80;99.90;;;;;;5032147;28;19917;-58
2023/03/29 05:44:29;;;;;;;;;;;5.80;99.90;;;;;;5033041;28;19921;-58
2023/03/29 05:46:56;;;;;;;;;;;5.70;99.90;;;;;;5039470;28;20302;-55
2023/03/29 05:49:21;;;;;;;;;;;5.80;99.90;;;;;;5030710;28;19924;-59
2023/03/29 05:51:47;;;;;;;;;;;5.80;99.90;;;;;;5032007;28;19921;-58
2023/03/29 05:54:13;;;;;;;;;;;5.80;99.90;;;;;;5031608;28;20325;-57
2023/03/29 05:56:39;;;;;;;;;;;5.80;99.90;;;;;;5031910;28;19932;-57
2023/03/29 05:59:07;;;;;;;;;;;5.80;99.90;;;;;;5040342;28;20314;-58
2023/03/29 06:01:33;;;;;;;;;;;5.80;99.90;;;;;;5030758;28;20297;-57
2023/03/29 06:03:59;;;;;;;;;;;5.80;99.90;;;;;;5045718;28;20020;-57
2023/03/29 06:06:24;;;;;;;;;;;5.80;99.90;;;;;;5049489;28;19924;-58
2023/03/29 06:08:50;;;;;;;;;;;5.80;99.90;;;;;;5033534;28;20433;-59
2023/03/29 06:11:16;;;;;;;;;;;5.80;99.90;;;;;;5044207;28;19921;-58
2023/03/29 06:13:41;;;;;;;;;;;5.80;99.90;;;;;;5045668;28;20317;-57
2023/03/29 06:16:08;;;;;;;;;;;5.90;99.90;;;;;;5042659;28;20328;-57
2023/03/29 06:18:33;;;;;;;;;;;5.90;99.90;;;;;;5031641;28;20619;-57
2023/03/29 06:21:01;;;;;;;;;;;5.90;99.90;;;;;;5037425;28;19923;-59
2023/03/29 06:23:27;;;;;;;;;;;5.90;99.90;;;;;;5041316;28;19921;-58
2023/03/29 06:25:54;;;;;;;;;;;5.90;99.90;;;;;;5039412;28;19917;-57
2023/03/29 06:28:19;;;;;;;;;;;5.90;99.90;;;;;;5039414;28;20374;-56
2023/03/29 06:30:45;;;;;;;;;;;5.90;99.90;;;;;;5038413;28;19928;-58
2023/03/29 06:33:11;;;;;;;;;;;5.90;99.90;;;;;;5040468;28;20390;-58
2023/03/29 06:35:39;;;;;;;;;;;6.00;99.90;;;;;;5037778;28;20023;-58
2023/03/29 06:38:05;;;;;;;;;;;6.00;99.90;;;;;;5037538;28;19917;-55
2023/03/29 06:40:30;;;;;;;;;;;6.00;99.90;;;;;;5041725;28;19917;-57
2023/03/29 06:42:59;;;;;;;;;;;6.00;99.90;;;;;;5048455;28;20267;-58
2023/03/29 06:45:25;;;;;;;;;;;6.00;99.90;;;;;;5048599;28;19920;-59
2023/03/29 06:47:51;;;;;;;;;;;6.10;99.90;;;;;;5039947;28;19939;-57
2023/03/29 06:50:17;;;;;;;;;;;6.10;99.90;;;;;;5037381;28;19921;-57
2023/03/29 06:52:43;;;;;;;;;;;6.10;99.90;;;;;;5037499;28;20461;-55
2023/03/29 06:55:10;;;;;;;;;;;6.10;99.90;;;;;;5036940;28;19964;-57
2023/03/29 06:57:36;;;;;;;;;;;6.10;99.90;;;;;;5029821;28;19924;-56
2023/03/29 07:00:12;;;;;;;;;;;6.20;99.90;;;;;;5033362;28;20530;-56
2023/03/29 07:02:38;;;;;;;;;;;6.20;99.90;;;;;;5030148;28;19921;-58
2023/03/29 07:05:10;;;;;;;;;;;6.20;99.90;;;;;;5032964;28;19929;-58
2023/03/29 07:07:42;;;;;;;;;;;6.20;99.90;;;;;;5026752;28;20424;-57
2023/03/29 07:10:08;;;;;;;;;;;6.30;99.90;;;;;;5032908;28;19955;-58
2023/03/29 07:12:34;;;;;;;;;;;6.40;99.90;;;;;;5030518;28;20316;-56
2023/03/29 07:15:00;;;;;;;;;;;6.40;99.90;;;;;;5034947;28;19921;-58
2023/03/29 07:17:25;;;;;;;;;;;6.40;99.90;;;;;;5029776;28;19932;-57
2023/03/29 07:19:51;;;;;;;;;;;6.40;99.90;;;;;;5039642;28;19916;-57
2023/03/29 07:22:18;;;;;;;;;;;6.50;99.90;;;;;;5012520;28;20015;-58
2023/03/29 07:24:43;;;;;;;;;;;6.50;99.90;;;;;;5036077;28;20015;-58
2023/03/29 07:27:09;;;;;;;;;;;6.60;99.90;;;;;;5048272;28;20008;-57
2023/03/29 07:29:36;;;;;;;;;;;6.60;99.90;;;;;;5043656;28;20368;-56
2023/03/29 07:32:01;;;;;;;;;;;6.60;99.90;;;;;;5042334;28;19930;-58
2023/03/29 07:34:28;;;;;;;;;;;6.70;99.90;;;;;;5041329;28;19921;-57
2023/03/29 07:36:54;;;;;;;;;;;6.70;99.90;;;;;;5037095;28;20392;-57
2023/03/29 07:39:21;;;;;;;;;;;6.70;99.90;;;;;;5026424;28;19917;-58
2023/03/29 07:41:46;;;;;;;;;;;6.70;99.90;;;;;;5047518;28;20467;-58
2023/03/29 07:44:12;;;;;;;;;;;6.70;99.90;;;;;;5049469;28;19929;-57
2023/03/29 07:46:38;;;;;;;;;;;6.80;99.90;;;;;;5048565;28;19970;-59
2023/03/29 07:49:04;;;;;;;;;;;6.80;99.90;;;;;;5048997;28;19921;-59
2023/03/29 07:51:30;;;;;;;;;;;6.90;99.90;;;;;;5031943;28;19999;-59
2023/03/29 07:53:55;;;;;;;;;;;6.90;99.90;;;;;;5037538;28;20099;-59
2023/03/29 07:56:21;;;;;;;;;;;6.90;99.90;;;;;;5040649;28;20386;-60
2023/03/29 07:58:46;;;;;;;;;;;7.00;99.90;;;;;;5037901;28;19983;-60
2023/03/29 08:01:14;;;;;;;;;;;7.00;99.90;;;;;;5034182;28;19916;-59
2023/03/29 08:03:40;;;;;;;;;;;7.10;99.90;;;;;;5030341;28;20343;-60
2023/03/29 08:06:06;;;;;;;;;;;7.10;99.90;;;;;;5044611;28;19917;-59
2023/03/29 08:08:32;;;;;;;;;;;7.10;99.90;;;;;;5049264;28;20004;-60
2023/03/29 08:10:57;;;;;;;;;;;7.10;99.90;;;;;;5044059;28;20460;-58
2023/03/29 08:13:23;;;;;;;;;;;7.20;99.90;;;;;;5049827;28;19917;-60
2023/03/29 08:15:49;;;;;;;;;;;7.20;99.90;;;;;;5048045;28;20282;-59
2023/03/29 08:18:14;;;;;;;;;;;7.30;99.90;;;;;;5048741;28;20170;-59
2023/03/29 08:20:41;;;;;;;;;;;7.30;99.90;;;;;;5046306;28;19952;-59
2023/03/29 08:23:06;;;;;;;;;;;7.30;99.90;;;;;;5048106;28;19924;-59
2023/03/29 08:25:33;;;;;;;;;;;7.30;99.90;;;;;;5048366;28;19928;-59
2023/03/29 08:27:59;;;;;;;;;;;7.40;99.90;;;;;;5032059;28;20417;-59
2023/03/29 08:30:25;;;;;;;;;;;7.40;99.90;;;;;;5039743;28;19920;-59
2023/03/29 08:32:52;;;;;;;;;;;7.40;99.90;;;;;;5046637;28;20453;-60
2023/03/29 08:35:18;;;;;;;;;;;7.40;99.90;;;;;;5048285;28;19963;-59
2023/03/29 08:37:43;;;;;;;;;;;7.50;99.90;;;;;;5046548;28;19997;-60
2023/03/29 08:40:15;;;;;;;;;;;7.60;99.90;;;;;;5048162;28;19927;-60
2023/03/29 08:42:48;;;;;;;;;;;7.60;99.90;;;;;;5047187;28;19920;-60
2023/03/29 08:45:26;;;;;;;;;;;7.60;99.90;;;;;;5048454;28;19920;-60
2023/03/29 08:48:10;;;;;;;;;;;7.70;99.90;;;;;;5045879;28;19916;-59
2023/03/29 08:50:38;;;;;;;;;;;7.70;99.90;;;;;;5047377;28;20344;-59
2023/03/29 08:53:07;;;;;;;;;;;7.80;99.90;;;;;;5046913;28;20294;-58
2023/03/29 08:55:36;;;;;;;;;;;7.80;99.90;;;;;;5046670;28;19920;-59
2023/03/29 08:58:06;;;;;;;;;;;7.80;99.90;;;;;;5027155;28;20677;-57
2023/03/29 09:00:46;;;;;;;;;;;7.90;99.90;;;;;;5028615;28;20290;-59
2023/03/29 09:03:22;;;;;;;;;;;8.00;99.90;;;;;;5045232;28;20023;-59
2023/03/29 09:05:55;;;;;;;;;;;8.00;99.90;;;;;;5046970;28;20035;-60
2023/03/29 09:08:21;;;;;;;;;;;8.10;99.90;;;;;;5041267;28;19920;-60
2023/03/29 09:11:02;;;;;;;;;;;8.20;99.90;;;;;;5046089;28;20327;-59
2023/03/29 09:13:40;;;;;;;;;;;8.20;99.90;;;;;;5026345;28;20370;-60
2023/03/29 09:16:19;;;;;;;;;;;8.30;99.90;;;;;;5045256;28;19917;-60
2023/03/29 09:18:57;;;;;;;;;;;8.30;99.90;;;;;;5043070;28;19962;-59
2023/03/29 09:21:31;;;;;;;;;;;8.30;99.90;;;;;;5044752;28;20185;-59
2023/03/29 09:24:05;;;;;;;;;;;8.40;99.90;;;;;;5038486;28;19975;-58
2023/03/29 09:26:46;;;;;;;;;;;8.50;99.90;;;;;;5046017;28;20066;-59
2023/03/29 09:29:30;;;;;;;;;;;8.50;99.90;;;;;;5045770;28;20118;-59
2023/03/29 09:31:57;;;;;;;;;;;8.60;99.90;;;;;;5045643;28;19986;-59
2023/03/29 09:34:28;;;;;;;;;;;8.60;99.90;;;;;;5046447;28;20473;-59
2023/03/29 09:36:59;;;;;;;;;;;8.70;99.90;;;;;;5043723;28;19964;-59
2023/03/29 09:39:26;;;;;;;;;;;8.80;99.90;;;;;;5045729;28;20370;-58
2023/03/29 09:41:57;;;;;;;;;;;8.80;99.90;;;;;;5043653;28;20194;-59
2023/03/29 09:44:24;;;;;;;;;;;8.90;99.90;;;;;;5047356;28;19920;-57
2023/03/29 09:46:53;;;;;;;;;;;8.90;99.90;;;;;;5042890;28;19921;-59
2023/03/29 09:49:21;;;;;;;;;;;9.00;99.90;;;;;;5027932;28;19924;-60
2023/03/29 09:51:47;;;;;;;;;;;9.00;99.90;;;;;;5046165;28;19927;-59
2023/03/29 09:54:13;;;;;;;;;;;9.00;99.90;;;;;;5048710;28;19931;-59
2023/03/29 09:56:39;;;;;;;;;;;9.10;99.90;;;;;;5046421;28;20015;-60
2023/03/29 09:59:05;;;;;;;;;;;9.20;99.90;;;;;;5042652;28;20328;-59
2023/03/29 10:01:38;;;;;;;;;;;9.20;99.90;;;;;;5043855;28;19920;-58
2023/03/29 10:04:06;;;;;;;;;;;9.30;99.90;;;;;;5039019;28;19921;-59
2023/03/29 10:06:33;;;;;;;;;;;9.40;99.90;;;;;;5042605;28;20024;-59
2023/03/29 10:08:58;;;;;;;;;;;9.40;99.90;;;;;;5045789;28;20681;-60
2023/03/29 10:11:34;;;;;;;;;;;9.40;99.90;;;;;;5044519;28;19968;-59
2023/03/29 10:14:01;;;;;;;;;;;9.50;99.90;;;;;;5039978;28;19917;-58
2023/03/29 10:16:38;;;;;;;;;;;9.50;99.90;;;;;;5022272;28;20612;-60
2023/03/29 10:19:15;;;;;;;;;;;9.50;99.90;;;;;;5045486;28;19916;-59
2023/03/29 10:21:41;;;;;;;;;;;9.60;99.90;;;;;;5047479;28;19924;-59
2023/03/29 10:24:08;;;;;;;;;;;9.60;99.90;;;;;;5041391;28;19996;-59
2023/03/29 10:26:36;;;;;;;;;;;9.70;99.90;;;;;;5044896;28;19916;-59
2023/03/29 10:29:02;;;;;;;;;;;9.80;99.90;;;;;;5042925;28;19965;-59
2023/03/29 10:31:31;;;;;;;;;;;9.80;99.90;;;;;;5044202;28;19917;-59
2023/03/29 10:34:00;;;;;;;;;;;9.90;99.90;;;;;;5044336;28;20340;-59
2023/03/29 10:36:25;;;;;;;;;;;9.90;99.90;;;;;;5044752;28;19974;-59
2023/03/29 10:38:53;;;;;;;;;;;9.90;99.90;;;;;;5044154;28;20586;-59
2023/03/29 10:41:20;;;;;;;;;;;9.90;99.90;;;;;;5025978;28;19916;-60
2023/03/29 10:43:49;;;;;;;;;;;9.90;99.90;;;;;;5044685;28;19928;-58
2023/03/29 10:46:32;;;;;;;;;;;10.10;99.90;;;;;;5044610;28;19917;-59
2023/03/29 10:49:04;;;;;;;;;;;10.10;99.90;;;;;;5040394;28;19928;-60
2023/03/29 10:51:29;;;;;;;;;;;10.20;99.90;;;;;;5044116;28;19928;-60
2023/03/29 10:53:58;;;;;;;;;;;10.20;99.90;;;;;;5045046;28;19925;-59
2023/03/29 10:56:37;;;;;;;;;;;10.30;99.90;;;;;;5044439;28;19916;-59
2023/03/29 10:59:03;;;;;;;;;;;10.40;99.90;;;;;;5044386;28;19923;-59
2023/03/29 11:01:35;;;;;;;;;;;10.40;99.90;;;;;;5026227;28;19920;-59
2023/03/29 11:04:06;;;;;;;;;;;10.50;99.90;;;;;;5043970;28;19927;-59
2023/03/29 11:06:35;;;;;;;;;;;10.60;99.90;;;;;;5045132;28;20047;-60
2023/03/29 11:09:05;;;;;;;;;;;10.70;99.90;;;;;;5040371;28;19924;-59
2023/03/29 11:11:31;;;;;;;;;;;10.70;99.90;;;;;;5022401;28;20311;-60
2023/03/29 11:14:02;;;;;;;;;;;10.80;99.90;;;;;;5044591;28;20024;-60
2023/03/29 11:16:46;;;;;;;;;;;10.80;99.90;;;;;;5038800;28;19925;-59
2023/03/29 11:19:12;;;;;;;;;;;10.90;99.90;;;;;;5041775;28;20366;-59
2023/03/29 11:21:44;;;;;;;;;;;10.90;99.90;;;;;;5043689;28;19921;-59
2023/03/29 11:24:24;;;;;;;;;;;11.00;99.90;;;;;;5044895;28;19980;-58
2023/03/29 11:26:52;;;;;;;;;;;11.10;99.90;;;;;;5043039;28;20035;-59
2023/03/29 11:29:27;;;;;;;;;;;11.10;99.90;;;;;;5043414;28;19968;-59
2023/03/29 11:31:52;;;;;;;;;;;11.20;99.90;;;;;;5018073;28;19963;-59
2023/03/29 11:34:18;;;;;;;;;;;11.30;99.90;;;;;;5036359;28;19952;-59
2023/03/29 11:37:07;;;;;;;;;;;11.40;99.90;;;;;;5040810;28;19917;-60
2023/03/29 11:39:32;;;;;;;;;;;11.50;99.90;;;;;;5040726;28;19920;-59
2023/03/29 11:42:17;;;;;;;;;;;11.70;99.90;;;;;;5043548;28;19920;-60
2023/03/29 11:44:43;;;;;;;;;;;11.70;99.90;;;;;;5042740;28;19927;-60
2023/03/29 11:47:12;;;;;;;;;;;11.80;99.90;;;;;;5035455;28;19927;-59
2023/03/29 11:49:57;;;;;;;;;;;11.80;99.90;;;;;;5038484;28;19916;-59
2023/03/29 11:52:32;;;;;;;;;;;11.80;99.90;;;;;;5033167;28;19929;-59
2023/03/29 11:55:03;;;;;;;;;;;11.90;99.90;;;;;;5038740;28;20505;-60
2023/03/29 11:57:32;;;;;;;;;;;12.00;99.90;;;;;;5033190;28;20000;-59
2023/03/29 12:00:01;;;;;;;;;;;12.10;99.90;;;;;;5039479;28;19927;-59
2023/03/29 12:02:53;;;;;;;;;;;12.20;99.90;;;;;;5046050;28;19979;-60
2023/03/29 12:05:18;;;;;;;;;;;12.20;99.90;;;;;;5038709;28;19924;-60
2023/03/29 12:07:49;;;;;;;;;;;12.30;99.90;;;;;;5041797;28;19917;-59
2023/03/29 12:10:25;;;;;;;;;;;12.30;99.90;;;;;;5041881;28;20527;-60
2023/03/29 12:12:56;;;;;;;;;;;12.40;99.90;;;;;;5040818;28;19916;-60
2023/03/29 12:15:24;;;;;;;;;;;12.40;99.90;;;;;;5043880;28;19924;-60
2023/03/29 12:17:50;;;;;;;;;;;12.50;99.90;;;;;;5023348;28;19968;-60
2023/03/29 12:20:25;;;;;;;;;;;12.60;99.90;;;;;;5042691;28;20351;-59
2023/03/29 12:22:51;;;;;;;;;;;12.60;99.90;;;;;;5024025;28;19917;-60
2023/03/29 12:25:20;;;;;;;;;;;12.70;99.90;;;;;;5042449;28;19931;-60
2023/03/29 12:27:53;;;;;;;;;;;12.70;99.90;;;;;;5041534;28;19936;-59
2023/03/29 12:30:26;;;;;;;;;;;12.70;99.90;;;;;;5039464;28;19920;-60
2023/03/29 12:33:03;;;;;;;;;;;12.80;99.90;;;;;;5043504;28;19924;-59
2023/03/29 12:35:36;;;;;;;;;;;12.80;99.90;;;;;;5024245;28;20373;-60
2023/03/29 12:38:13;;;;;;;;;;;12.80;99.90;;;;;;5038651;28;20572;-59
2023/03/29 12:40:42;;;;;;;;;;;12.70;99.90;;;;;;5037758;28;20035;-59
2023/03/29 12:43:14;;;;;;;;;;;12.70;99.90;;;;;;5042083;28;20012;-60
2023/03/29 12:45:47;;;;;;;;;;;12.80;99.90;;;;;;5042742;28;19927;-59
2023/03/29 12:48:23;;;;;;;;;;;12.80;99.90;;;;;;5044530;28;19921;-60
2023/03/29 12:50:50;;;;;;;;;;;12.80;99.90;;;;;;5043713;28;19921;-60
2023/03/29 12:53:23;;;;;;;;;;;12.80;99.90;;;;;;5037343;28;19928;-59
2023/03/29 12:55:52;;;;;;;;;;;12.80;99.90;;;;;;5040858;28;19916;-60
2023/03/29 12:58:26;;;;;;;;;;;12.70;99.90;;;;;;5040852;28;19928;-59
2023/03/29 13:01:02;;;;;;;;;;;12.70;99.90;;;;;;5037446;28;20629;-60
2023/03/29 13:03:36;;;;;;;;;;;12.70;99.90;;;;;;5039734;28;20685;-59
2023/03/29 13:06:03;;;;;;;;;;;12.60;99.90;;;;;;5038795;28;19924;-60
2023/03/29 13:08:34;;;;;;;;;;;12.60;99.90;;;;;;5041473;28;19955;-60
2023/03/29 13:10:59;;;;;;;;;;;12.60;99.90;;;;;;5040696;28;20004;-60
2023/03/29 13:13:46;;;;;;;;;;;12.50;99.90;;;;;;5021529;28;20027;-59
2023/03/29 13:16:13;;;;;;;;;;;12.50;99.90;;;;;;5040405;28;20011;-59
2023/03/29 13:18:46;;;;;;;;;;;12.50;99.90;;;;;;5039800;28;20279;-59
2023/03/29 13:21:21;;;;;;;;;;;12.50;99.90;;;;;;5038026;28;20011;-60
2023/03/29 13:23:53;;;;;;;;;;;12.50;99.90;;;;;;5019268;28;19928;-60
2023/03/29 13:26:41;;;;;;;;;;;12.50;99.90;;;;;;5041233;28;19920;-60
2023/03/29 13:29:16;;;;;;;;;;;12.50;99.90;;;;;;4988744;28;19924;-60
2023/03/29 13:32:04;;;;;;;;;;;12.50;99.90;;;;;;5021947;28;20497;-59
2023/03/29 13:34:38;;;;;;;;;;;12.50;99.90;;;;;;5039209;28;19925;-60
2023/03/29 13:37:23;;;;;;;;;;;12.60;99.90;;;;;;5040685;28;20380;-59
2023/03/29 13:39:52;;;;;;;;;;;12.70;99.90;;;;;;5038841;28;19935;-60
2023/03/29 13:42:33;;;;;;;;;;;12.70;99.90;;;;;;5024362;28;19921;-59
2023/03/29 13:45:21;;;;;;;;;;;12.70;99.90;;;;;;5039992;28;19950;-60
2023/03/29 13:47:47;;;;;;;;;;;12.70;99.90;;;;;;5038786;28;19921;-60
2023/03/29 13:50:17;;;;;;;;;;;12.70;99.90;;;;;;5041982;28;20400;-60
2023/03/29 13:52:52;;;;;;;;;;;12.70;99.90;;;;;;5020473;28;19917;-60
2023/03/29 13:55:24;;;;;;;;;;;12.70;99.90;;;;;;5040049;28;19916;-60
2023/03/29 13:58:10;;;;;;;;;;;12.70;99.90;;;;;;5040613;28;19917;-60
2023/03/29 14:00:58;;;;;;;;;;;12.70;99.90;;;;;;5040546;28;20479;-59
2023/03/29 14:03:28;;;;;;;;;;;12.80;99.90;;;;;;5039217;28;19924;-60
2023/03/29 14:05:59;;;;;;;;;;;12.90;99.90;;;;;;5038351;28;19971;-60
2023/03/29 14:08:32;;;;;;;;;;;13.00;99.90;;;;;;5040342;28;20356;-62
2023/03/29 14:11:02;;;;;;;;;;;13.00;99.90;;;;;;5039096;28;19986;-60
2023/03/29 14:13:28;;;;;;;;;;;13.00;99.90;;;;;;5040996;28;20405;-59
2023/03/29 14:15:56;;;;;;;;;;;12.90;99.90;;;;;;5035085;28;19917;-60
2023/03/29 14:18:22;;;;;;;;;;;12.90;99.90;;;;;;5018480;28;19920;-59
2023/03/29 14:20:53;;;;;;;;;;;12.90;99.90;;;;;;5037133;28;19974;-60
2023/03/29 14:23:24;;;;;;;;;;;12.80;99.90;;;;;;5022200;28;19986;-60
2023/03/29 14:25:50;;;;;;;;;;;12.70;99.90;;;;;;5038568;28;19925;-60
2023/03/29 14:28:18;;;;;;;;;;;12.70;99.90;;;;;;5037111;28;20472;-60
2023/03/29 14:30:45;;;;;;;;;;;12.70;99.90;;;;;;5038281;28;20390;-60
2023/03/29 14:33:12;;;;;;;;;;;12.70;99.90;;;;;;5038653;28;19998;-60
2023/03/29 14:35:39;;;;;;;;;;;12.60;99.90;;;;;;5036629;28;20407;-60
2023/03/29 14:38:04;;;;;;;;;;;12.60;99.90;;;;;;5038927;28;19962;-60